Lille, Maine
Current Conditions -  °F | °C
As of 9:53 PM on Friday 19 Dec 2014 (Local Time) from KFVE Reporting Station
Clear Clear  
Wind Chill:   Ceiling: Unl
Heat Index: 14°   Visibility: 10mi
Dew Point: 12°   Wind: 8mph
Humidity: 92%   Direction: 330°NNW
Pressure: 30.07"   Gusts: NA
Location:  47.2307°N, 68.1312°W
Report Text: KFVE 200253Z AUTO 33007KT 10SM CLR M10/M11 A3007 RMK AO2 SLP200 T11001111 51017
Loading
Personal Weather Stations






























Interactive Weather Map New forecast layout! Learn more

10-Day Weather Forecast

Advertisements
Track Severe Weather on mobile